Time;durP1;ratioP1;P1;durP2;ratioP2;P2;SDS_P1;SDS_P2;PMS_P1;PMS_P2;Temp;Humidity;BMP_temperature;BMP_pressure;BME280_temperature;BME280_humidity;BME280_pressure;Samples;Min_cycle;Max_cycle;Signal;HPM_P1;HPM_P2
2021/01/09 00:00:27;;;;;;;13.10;7.90;;;;;;;;;;5072521;28;20095;-72
2021/01/09 00:02:53;;;;;;;13.35;7.55;;;;;;;;;;5071393;28;20388;-73
2021/01/09 00:05:19;;;;;;;14.02;8.18;;;;;;;;;;5072846;28;20021;-73
2021/01/09 00:07:45;;;;;;;10.23;6.63;;;;;;;;;;5072428;28;20033;-73
2021/01/09 00:10:11;;;;;;;14.65;7.53;;;;;;;;;;5072645;28;20028;-73
2021/01/09 00:12:38;;;;;;;12.10;6.55;;;;;;;;;;5072639;28;20361;-72
2021/01/09 00:15:08;;;;;;;15.77;8.18;;;;;;;;;;5071248;28;20019;-72
2021/01/09 00:17:34;;;;;;;12.57;7.68;;;;;;;;;;5072649;28;20446;-72
2021/01/09 00:20:01;;;;;;;12.82;7.60;;;;;;;;;;5072174;28;20087;-72
2021/01/09 00:22:27;;;;;;;14.73;8.07;;;;;;;;;;5070897;28;20024;-72
2021/01/09 00:24:53;;;;;;;12.15;7.35;;;;;;;;;;5072462;28;20461;-72
2021/01/09 00:27:19;;;;;;;13.57;7.90;;;;;;;;;;5072324;28;20029;-72
2021/01/09 00:29:45;;;;;;;10.27;5.95;;;;;;;;;;5070817;28;20031;-73
2021/01/09 00:32:12;;;;;;;9.80;4.55;;;;;;;;;;5070938;28;20453;-72
2021/01/09 00:34:38;;;;;;;10.18;6.85;;;;;;;;;;5070787;28;20040;-72
2021/01/09 00:37:04;;;;;;;11.48;7.13;;;;;;;;;;5072293;28;20020;-72
2021/01/09 00:39:30;;;;;;;13.57;7.45;;;;;;;;;;5072271;28;20123;-71
2021/01/09 00:42:00;;;;;;;12.50;8.10;;;;;;;;;;5072364;28;20090;-72
2021/01/09 00:44:26;;;;;;;16.13;7.72;;;;;;;;;;5071817;28;20009;-73
2021/01/09 00:46:59;;;;;;;14.05;7.70;;;;;;;;;;5070665;28;20021;-73
2021/01/09 00:49:26;;;;;;;16.17;8.98;;;;;;;;;;5077219;28;20485;-73
2021/01/09 00:51:52;;;;;;;12.57;7.38;;;;;;;;;;5077521;28;20055;-73
2021/01/09 00:54:18;;;;;;;10.20;6.20;;;;;;;;;;5078766;28;20020;-73
2021/01/09 00:56:44;;;;;;;12.77;8.02;;;;;;;;;;5078835;28;20481;-73
2021/01/09 00:59:10;;;;;;;13.98;6.85;;;;;;;;;;5078791;28;20021;-73
2021/01/09 01:01:36;;;;;;;11.68;6.90;;;;;;;;;;5077200;28;20023;-73
2021/01/09 01:04:03;;;;;;;16.58;9.25;;;;;;;;;;5077364;28;20016;-73
2021/01/09 01:06:29;;;;;;;15.43;7.43;;;;;;;;;;5078317;28;20024;-73
2021/01/09 01:08:55;;;;;;;12.55;7.45;;;;;;;;;;5078551;28;20016;-73
2021/01/09 01:11:40;;;;;;;14.63;7.88;;;;;;;;;;5059325;28;20450;-73
2021/01/09 01:14:06;;;;;;;12.07;7.90;;;;;;;;;;5058906;28;20099;-73
2021/01/09 01:16:32;;;;;;;13.40;7.97;;;;;;;;;;5057010;28;20083;-73
2021/01/09 01:18:58;;;;;;;19.65;8.20;;;;;;;;;;5058509;28;20041;-73
2021/01/09 01:21:24;;;;;;;13.77;7.18;;;;;;;;;;5058318;28;20021;-73
2021/01/09 01:23:50;;;;;;;14.80;8.10;;;;;;;;;;5058706;28;20075;-72
2021/01/09 01:26:16;;;;;;;13.10;7.72;;;;;;;;;;5058209;28;20172;-72
2021/01/09 01:28:42;;;;;;;12.93;6.82;;;;;;;;;;5056887;28;20025;-72
2021/01/09 01:31:09;;;;;;;13.40;8.23;;;;;;;;;;5058406;28;20013;-71
2021/01/09 01:33:37;;;;;;;12.45;7.70;;;;;;;;;;5058241;28;20063;-71
2021/01/09 01:36:03;;;;;;;10.88;8.10;;;;;;;;;;5058112;28;20091;-72
2021/01/09 01:38:29;;;;;;;11.80;7.75;;;;;;;;;;5056816;28;20107;-72
2021/01/09 01:41:03;;;;;;;13.90;7.53;;;;;;;;;;5057966;28;20118;-72
2021/01/09 01:43:30;;;;;;;15.65;9.40;;;;;;;;;;5058078;28;20027;-72
2021/01/09 01:45:57;;;;;;;14.73;7.07;;;;;;;;;;5058267;28;20017;-72
2021/01/09 01:48:23;;;;;;;14.60;9.25;;;;;;;;;;5058555;28;20032;-72
2021/01/09 01:50:50;;;;;;;13.45;7.40;;;;;;;;;;5056672;28;20381;-72
2021/01/09 01:53:16;;;;;;;14.90;8.48;;;;;;;;;;5057782;28;20029;-72
2021/01/09 01:55:43;;;;;;;15.27;8.23;;;;;;;;;;5056745;28;20028;-72
2021/01/09 01:58:09;;;;;;;15.10;8.88;;;;;;;;;;5058259;28;20021;-72
2021/01/09 02:00:35;;;;;;;14.73;8.88;;;;;;;;;;5052809;28;20024;-72
2021/01/09 02:03:02;;;;;;;16.55;9.75;;;;;;;;;;5054991;28;20016;-72
2021/01/09 02:05:33;;;;;;;14.63;8.65;;;;;;;;;;5052951;28;20035;-72
2021/01/09 02:08:01;;;;;;;16.52;9.75;;;;;;;;;;5054791;28;20056;-73
2021/01/09 02:10:27;;;;;;;14.82;10.20;;;;;;;;;;5053539;28;20119;-72
2021/01/09 02:12:58;;;;;;;15.40;9.65;;;;;;;;;;5053341;28;20023;-72
2021/01/09 02:15:25;;;;;;;15.90;8.82;;;;;;;;;;5054790;28;20144;-72
2021/01/09 02:17:52;;;;;;;15.48;8.73;;;;;;;;;;5054423;28;20021;-72
2021/01/09 02:20:19;;;;;;;17.25;8.90;;;;;;;;;;5053294;28;20021;-72
2021/01/09 02:22:45;;;;;;;17.10;9.98;;;;;;;;;;5054503;28;20025;-72
2021/01/09 02:25:12;;;;;;;14.05;8.35;;;;;;;;;;5054557;28;20401;-73
2021/01/09 02:27:38;;;;;;;14.13;8.57;;;;;;;;;;5054403;28;20021;-72
2021/01/09 02:30:04;;;;;;;13.38;7.97;;;;;;;;;;5053190;28;20021;-72
2021/01/09 02:32:33;;;;;;;17.40;10.50;;;;;;;;;;5054219;28;20056;-72
2021/01/09 02:35:00;;;;;;;20.02;11.57;;;;;;;;;;5054409;28;20013;-73
2021/01/09 02:37:26;;;;;;;20.85;10.30;;;;;;;;;;5053068;28;20059;-73
2021/01/09 02:39:54;;;;;;;16.00;9.32;;;;;;;;;;5054281;28;20063;-73
2021/01/09 02:42:20;;;;;;;24.98;12.32;;;;;;;;;;5053839;28;20406;-73
2021/01/09 02:44:50;;;;;;;21.80;9.52;;;;;;;;;;5053644;28;20017;-73
2021/01/09 02:47:16;;;;;;;;;;;;;;;;;;5053238;28;20025;-73
2021/01/09 02:49:42;;;;;;;16.02;8.60;;;;;;;;;;5053928;28;19904;-73
2021/01/09 02:52:08;;;;;;;17.33;8.05;;;;;;;;;;5054081;28;20021;-73
2021/01/09 02:54:34;;;;;;;16.25;8.40;;;;;;;;;;5053756;28;20020;-73
2021/01/09 02:57:01;;;;;;;24.58;12.48;;;;;;;;;;5052764;28;20028;-73
2021/01/09 02:59:27;;;;;;;24.20;10.95;;;;;;;;;;5054015;28;20021;-73
2021/01/09 03:01:53;;;;;;;17.27;9.48;;;;;;;;;;5054024;28;20024;-73
2021/01/09 03:04:18;;;;;;;15.98;9.00;;;;;;;;;;5053831;28;20508;-73
2021/01/09 03:06:44;;;;;;;19.58;9.27;;;;;;;;;;5053567;28;20108;-73
2021/01/09 03:09:11;;;;;;;23.35;9.98;;;;;;;;;;5053526;28;20436;-73
2021/01/09 03:11:37;;;;;;;17.58;10.25;;;;;;;;;;5052354;28;20025;-73
2021/01/09 03:14:04;;;;;;;19.77;9.35;;;;;;;;;;5053455;28;20020;-73
2021/01/09 03:16:30;;;;;;;18.48;9.15;;;;;;;;;;5053862;28;20036;-73
2021/01/09 03:18:56;;;;;;;23.45;11.10;;;;;;;;;;5053724;28;20024;-73
2021/01/09 03:21:22;;;;;;;19.80;10.05;;;;;;;;;;5053279;28;20021;-73
2021/01/09 03:23:48;;;;;;;22.50;10.55;;;;;;;;;;5052003;28;20024;-73
2021/01/09 03:26:14;;;;;;;20.10;10.55;;;;;;;;;;5053428;28;20485;-73
2021/01/09 03:28:40;;;;;;;19.25;9.75;;;;;;;;;;5053600;28;20025;-73
2021/01/09 03:31:07;;;;;;;21.88;11.43;;;;;;;;;;5053369;28;20035;-73
2021/01/09 03:33:33;;;;;;;20.15;10.48;;;;;;;;;;5053381;28;20021;-73
2021/01/09 03:35:59;;;;;;;19.48;11.43;;;;;;;;;;5051975;28;20457;-73
2021/01/09 03:38:25;;;;;;;18.50;10.85;;;;;;;;;;5053531;28;20032;-73
2021/01/09 03:40:51;;;;;;;19.52;11.10;;;;;;;;;;5051314;28;20424;-72
2021/01/09 03:43:17;;;;;;;22.73;10.73;;;;;;;;;;5053233;28;20020;-72
2021/01/09 03:45:43;;;;;;;20.95;9.40;;;;;;;;;;5051432;28;20036;-73
2021/01/09 03:48:09;;;;;;;23.38;11.65;;;;;;;;;;5052972;28;20013;-73
2021/01/09 03:50:35;;;;;;;17.60;9.02;;;;;;;;;;5053052;28;20099;-73
2021/01/09 03:53:01;;;;;;;19.90;9.45;;;;;;;;;;5052923;28;20048;-73
2021/01/09 03:55:27;;;;;;;21.10;9.63;;;;;;;;;;5051652;28;20039;-73
2021/01/09 03:57:53;;;;;;;18.30;10.23;;;;;;;;;;5052777;28;20461;-73
2021/01/09 04:00:19;;;;;;;19.65;9.20;;;;;;;;;;5052813;28;20020;-73
2021/01/09 04:02:45;;;;;;;15.07;8.52;;;;;;;;;;5052234;28;20467;-73
2021/01/09 04:05:11;;;;;;;20.52;10.60;;;;;;;;;;5051491;28;20045;-73
2021/01/09 04:07:37;;;;;;;21.45;10.55;;;;;;;;;;5052394;28;20029;-73
2021/01/09 04:10:04;;;;;;;16.33;7.95;;;;;;;;;;5051368;28;20060;-73
2021/01/09 04:12:30;;;;;;;16.35;9.48;;;;;;;;;;5052639;28;20028;-72
2021/01/09 04:14:56;;;;;;;15.30;7.75;;;;;;;;;;5050980;28;20017;-73
2021/01/09 04:17:22;;;;;;;17.83;9.82;;;;;;;;;;5052562;28;20021;-72
2021/01/09 04:19:48;;;;;;;15.32;8.30;;;;;;;;;;5051011;28;20032;-72
2021/01/09 04:22:14;;;;;;;12.05;7.60;;;;;;;;;;5052100;28;20018;-72
2021/01/09 04:24:40;;;;;;;12.98;7.78;;;;;;;;;;5052232;28;20025;-73
2021/01/09 04:27:06;;;;;;;16.27;8.48;;;;;;;;;;5051093;28;20461;-73
2021/01/09 04:29:32;;;;;;;26.05;10.65;;;;;;;;;;5052202;28;20481;-72
2021/01/09 04:31:58;;;;;;;17.05;8.60;;;;;;;;;;5052113;28;20045;-72
2021/01/09 04:34:24;;;;;;;18.65;9.23;;;;;;;;;;5052358;28;20053;-73
2021/01/09 04:36:51;;;;;;;16.45;8.25;;;;;;;;;;5050733;28;20029;-73
2021/01/09 04:39:18;;;;;;;11.90;6.75;;;;;;;;;;5052166;28;20013;-72
2021/01/09 04:41:44;;;;;;;13.70;7.70;;;;;;;;;;5052012;28;20041;-73
2021/01/09 04:44:11;;;;;;;13.43;7.28;;;;;;;;;;5052236;28;20017;-73
2021/01/09 04:46:56;;;;;;;11.45;7.13;;;;;;;;;;5050689;28;20467;-73
2021/01/09 04:49:23;;;;;;;13.93;7.57;;;;;;;;;;5052228;28;20044;-73
2021/01/09 04:51:49;;;;;;;9.55;5.28;;;;;;;;;;5051949;28;20027;-73
2021/01/09 04:54:16;;;;;;;12.63;6.75;;;;;;;;;;5051775;28;20021;-73
2021/01/09 04:56:47;;;;;;;12.70;8.25;;;;;;;;;;5052162;28;20025;-73
2021/01/09 04:59:13;;;;;;;12.10;8.20;;;;;;;;;;5052191;28;20067;-73
2021/01/09 05:01:41;;;;;;;10.82;6.75;;;;;;;;;;5050476;28;20021;-73
2021/01/09 05:04:07;;;;;;;10.82;6.97;;;;;;;;;;5052019;28;20051;-73
2021/01/09 05:06:33;;;;;;;11.38;7.28;;;;;;;;;;5050638;28;20033;-73
2021/01/09 05:08:59;;;;;;;8.57;5.10;;;;;;;;;;5050114;28;20021;-73
2021/01/09 05:11:25;;;;;;;9.70;6.30;;;;;;;;;;5050699;28;20025;-72
2021/01/09 05:13:51;;;;;;;10.00;5.63;;;;;;;;;;5051729;28;20021;-73
2021/01/09 05:16:17;;;;;;;10.25;6.18;;;;;;;;;;5051999;28;20100;-72
2021/01/09 05:18:44;;;;;;;10.70;5.80;;;;;;;;;;5051400;28;20365;-73
2021/01/09 05:21:10;;;;;;;10.38;5.85;;;;;;;;;;5051809;28;20448;-72
2021/01/09 05:23:59;;;;;;;9.40;6.25;;;;;;;;;;5050591;28;20091;-72
2021/01/09 05:26:24;;;;;;;8.55;4.93;;;;;;;;;;5051737;28;20021;-73
2021/01/09 05:28:52;;;;;;;14.55;6.82;;;;;;;;;;5051739;28;20124;-72
2021/01/09 05:31:19;;;;;;;9.20;5.82;;;;;;;;;;5051875;28;20035;-73
2021/01/09 05:33:45;;;;;;;10.30;6.32;;;;;;;;;;5052543;28;20052;-73
2021/01/09 05:36:11;;;;;;;10.32;6.05;;;;;;;;;;5054039;28;20465;-73
2021/01/09 05:38:38;;;;;;;10.38;6.13;;;;;;;;;;5054276;28;20372;-73
2021/01/09 05:41:08;;;;;;;8.93;5.82;;;;;;;;;;5055050;28;20044;-73
2021/01/09 05:43:34;;;;;;;;;;;;;;;;;;5054594;28;20507;-73
2021/01/09 05:46:01;;;;;;;10.13;5.57;;;;;;;;;;5053627;28;19995;-73
2021/01/09 05:48:28;;;;;;;9.23;5.85;;;;;;;;;;5054081;28;20029;-73
2021/01/09 05:50:55;;;;;;;8.45;4.97;;;;;;;;;;5053842;28;20507;-73
2021/01/09 05:53:37;;;;;;;9.02;5.88;;;;;;;;;;5053851;28;20473;-74
2021/01/09 05:56:06;;;;;;;11.80;6.57;;;;;;;;;;5055017;28;20028;-73
2021/01/09 05:58:33;;;;;;;13.75;7.53;;;;;;;;;;5054006;28;20035;-73
2021/01/09 06:01:03;;;;;;;13.23;5.95;;;;;;;;;;5055238;28;20025;-72
2021/01/09 06:03:37;;;;;;;12.20;6.07;;;;;;;;;;5055081;28;20021;-73
2021/01/09 06:06:13;;;;;;;17.13;8.43;;;;;;;;;;5054740;28;20048;-73
2021/01/09 06:08:42;;;;;;;15.40;7.65;;;;;;;;;;5054968;28;20070;-73
2021/01/09 06:11:09;;;;;;;19.70;9.65;;;;;;;;;;5055228;28;20021;-73
2021/01/09 06:13:36;;;;;;;22.02;9.20;;;;;;;;;;5055066;28;20397;-73
2021/01/09 06:16:06;;;;;;;22.48;9.50;;;;;;;;;;5053671;28;20533;-72
2021/01/09 06:18:32;;;;;;;22.63;10.27;;;;;;;;;;5053551;28;20040;-73
2021/01/09 06:20:59;;;;;;;16.88;8.27;;;;;;;;;;5052960;28;20021;-73
2021/01/09 06:23:25;;;;;;;15.32;8.85;;;;;;;;;;5054743;28;20032;-73
2021/01/09 06:25:56;;;;;;;20.13;8.65;;;;;;;;;;5054369;28;20021;-73
2021/01/09 06:28:24;;;;;;;17.15;9.10;;;;;;;;;;5054423;28;20025;-73
2021/01/09 06:30:55;;;;;;;16.58;8.30;;;;;;;;;;5054416;28;20111;-73
2021/01/09 06:33:24;;;;;;;17.40;8.38;;;;;;;;;;5054231;28;20354;-73
2021/01/09 06:35:54;;;;;;;22.30;10.27;;;;;;;;;;5052999;28;20017;-73
2021/01/09 06:38:21;;;;;;;16.80;8.20;;;;;;;;;;5054390;28;20045;-73
2021/01/09 06:40:49;;;;;;;14.55;6.63;;;;;;;;;;5053631;28;20044;-73
2021/01/09 06:43:16;;;;;;;15.10;7.13;;;;;;;;;;5054402;28;20454;-73
2021/01/09 06:45:42;;;;;;;14.43;6.72;;;;;;;;;;5052677;28;20457;-73
2021/01/09 06:48:09;;;;;;;12.80;6.43;;;;;;;;;;5054031;28;20032;-73
2021/01/09 06:50:35;;;;;;;13.68;6.55;;;;;;;;;;5054241;28;20020;-72
2021/01/09 06:53:02;;;;;;;12.20;5.07;;;;;;;;;;5052159;28;20047;-72
2021/01/09 06:55:37;;;;;;;9.57;5.78;;;;;;;;;;5054071;28;20025;-74
2021/01/09 06:58:10;;;;;;;15.45;5.82;;;;;;;;;;5053344;28;20021;-73
2021/01/09 07:00:37;;;;;;;8.13;4.72;;;;;;;;;;5052529;28;20025;-72
2021/01/09 07:03:12;;;;;;;11.73;5.45;;;;;;;;;;5053732;28;20055;-74
2021/01/09 07:05:44;;;;;;;11.18;5.35;;;;;;;;;;5053961;28;20049;-74
2021/01/09 07:08:11;;;;;;;9.52;4.53;;;;;;;;;;5052512;28;20043;-74
2021/01/09 07:10:45;;;;;;;7.68;3.40;;;;;;;;;;5052562;28;20083;-74
2021/01/09 07:13:12;;;;;;;9.98;5.10;;;;;;;;;;5053535;28;20017;-74
2021/01/09 07:15:38;;;;;;;11.27;4.75;;;;;;;;;;5052478;28;20086;-74
2021/01/09 07:18:06;;;;;;;12.00;5.28;;;;;;;;;;5052137;28;20357;-73
2021/01/09 07:20:39;;;;;;;11.07;4.85;;;;;;;;;;5053644;28;20056;-74
2021/01/09 07:23:06;;;;;;;11.40;5.70;;;;;;;;;;5053383;28;20074;-74
2021/01/09 07:25:34;;;;;;;10.00;4.35;;;;;;;;;;5052213;28;20020;-74
2021/01/09 07:28:02;;;;;;;10.90;4.72;;;;;;;;;;5053166;28;20624;-74
2021/01/09 07:30:29;;;;;;;10.88;4.70;;;;;;;;;;5062325;28;20025;-73
2021/01/09 07:32:55;;;;;;;11.40;5.05;;;;;;;;;;5059456;28;20376;-74
2021/01/09 07:35:21;;;;;;;10.05;4.80;;;;;;;;;;5062970;28;20373;-73
2021/01/09 07:37:48;;;;;;;10.00;5.18;;;;;;;;;;5073072;28;20024;-72
2021/01/09 07:40:15;;;;;;;9.77;4.68;;;;;;;;;;5071921;28;20082;-72
2021/01/09 07:42:42;;;;;;;10.88;6.15;;;;;;;;;;5069525;28;20045;-72
2021/01/09 07:45:10;;;;;;;10.73;5.78;;;;;;;;;;5062026;28;20040;-73
2021/01/09 07:47:37;;;;;;;13.07;6.28;;;;;;;;;;5062288;28;20480;-74
2021/01/09 07:50:04;;;;;;;9.85;4.70;;;;;;;;;;5058843;28;20059;-74
2021/01/09 07:52:33;;;;;;;10.38;5.35;;;;;;;;;;5061886;28;20043;-73
2021/01/09 07:54:59;;;;;;;9.52;5.63;;;;;;;;;;5060841;28;20013;-73
2021/01/09 07:57:25;;;;;;;10.25;5.40;;;;;;;;;;5059576;28;20033;-73
2021/01/09 07:59:54;;;;;;;11.93;5.78;;;;;;;;;;5061748;28;20074;-73
2021/01/09 08:02:27;;;;;;;9.55;4.57;;;;;;;;;;5062461;28;20032;-73
2021/01/09 08:05:20;;;;;;;7.68;4.70;;;;;;;;;;5059962;28;20009;-72
2021/01/09 08:07:48;;;;;;;9.88;4.60;;;;;;;;;;5061843;28;20356;-73
2021/01/09 08:10:28;;;;;;;9.07;4.60;;;;;;;;;;5059650;28;20020;-73
2021/01/09 08:12:58;;;;;;;11.65;5.97;;;;;;;;;;5060874;28;20035;-73
2021/01/09 08:15:25;;;;;;;12.32;6.28;;;;;;;;;;5058774;28;20016;-73
2021/01/09 08:17:51;;;;;;;11.90;6.32;;;;;;;;;;5058608;28;20021;-73
2021/01/09 08:20:18;;;;;;;9.13;5.53;;;;;;;;;;5058937;28;20347;-73
2021/01/09 08:22:50;;;;;;;10.23;5.63;;;;;;;;;;5060212;28;20452;-73
2021/01/09 08:25:16;;;;;;;9.93;5.93;;;;;;;;;;5058669;28;20810;-73
2021/01/09 08:27:50;;;;;;;10.35;4.97;;;;;;;;;;5060476;28;20035;-73
2021/01/09 08:30:17;;;;;;;10.65;6.22;;;;;;;;;;5062266;28;20132;-73
2021/01/09 08:32:44;;;;;;;11.80;6.50;;;;;;;;;;5059398;28;20095;-73
2021/01/09 08:35:11;;;;;;;11.23;6.22;;;;;;;;;;5060528;28;20012;-73
2021/01/09 08:37:37;;;;;;;12.02;6.25;;;;;;;;;;5062227;28;20055;-73
2021/01/09 08:40:10;;;;;;;9.98;5.38;;;;;;;;;;5060391;28;20009;-73
2021/01/09 08:42:36;;;;;;;8.25;4.60;;;;;;;;;;5058190;28;20037;-73
2021/01/09 08:45:02;;;;;;;10.02;6.10;;;;;;;;;;5061220;28;20020;-73
2021/01/09 08:47:28;;;;;;;11.88;5.57;;;;;;;;;;5061356;28;20395;-73
2021/01/09 08:49:56;;;;;;;13.38;6.05;;;;;;;;;;5058461;28;20052;-73
2021/01/09 08:52:24;;;;;;;11.00;6.05;;;;;;;;;;5061576;28;20094;-73
2021/01/09 08:54:53;;;;;;;17.55;6.25;;;;;;;;;;5060444;28;20040;-73
2021/01/09 08:57:19;;;;;;;12.35;6.07;;;;;;;;;;5055512;28;20021;-74
2021/01/09 08:59:46;;;;;;;9.48;5.05;;;;;;;;;;5061083;28;20008;-73
2021/01/09 09:02:14;;;;;;;11.10;5.07;;;;;;;;;;5060268;28;20101;-73
2021/01/09 09:04:42;;;;;;;10.93;5.07;;;;;;;;;;5059051;28;20082;-72
2021/01/09 09:07:09;;;;;;;9.90;4.55;;;;;;;;;;5058777;28;20468;-74
2021/01/09 09:09:39;;;;;;;10.13;3.75;;;;;;;;;;5062794;28;20032;-74
2021/01/09 09:12:06;;;;;;;13.48;4.07;;;;;;;;;;5068464;28;20012;-74
2021/01/09 09:14:32;;;;;;;7.97;3.63;;;;;;;;;;5065381;28;20099;-73
2021/01/09 09:17:03;;;;;;;7.13;4.15;;;;;;;;;;5072055;28;20048;-73
2021/01/09 09:19:34;;;;;;;9.55;3.92;;;;;;;;;;5075594;28;20032;-73
2021/01/09 09:22:00;;;;;;;7.00;3.30;;;;;;;;;;5075147;28;20020;-74
2021/01/09 09:24:39;;;;;;;7.45;3.38;;;;;;;;;;5074443;28;20020;-74
2021/01/09 09:27:25;;;;;;;13.60;4.97;;;;;;;;;;5075363;28;20070;-74
2021/01/09 09:30:07;;;;;;;9.13;4.03;;;;;;;;;;5075589;28;20020;-74
2021/01/09 09:32:34;;;;;;;10.57;4.28;;;;;;;;;;5075558;28;20017;-74
2021/01/09 09:35:18;;;;;;;10.32;4.05;;;;;;;;;;5075401;28;20017;-74
2021/01/09 09:37:44;;;;;;;8.77;3.78;;;;;;;;;;5075584;28;20025;-74
2021/01/09 09:40:20;;;;;;;8.30;3.75;;;;;;;;;;5075136;28;20019;-73
2021/01/09 09:42:46;;;;;;;8.32;3.33;;;;;;;;;;5073653;28;20052;-73
2021/01/09 09:45:12;;;;;;;10.25;3.72;;;;;;;;;;5072792;28;20479;-73
2021/01/09 09:47:38;;;;;;;10.50;3.70;;;;;;;;;;5073820;28;20193;-72
2021/01/09 09:50:04;;;;;;;9.73;3.80;;;;;;;;;;5075039;28;20350;-72
2021/01/09 09:52:32;;;;;;;7.38;2.90;;;;;;;;;;5073770;28;20048;-72
2021/01/09 09:55:01;;;;;;;9.15;3.30;;;;;;;;;;5074825;28;20023;-72
2021/01/09 09:57:27;;;;;;;8.97;3.00;;;;;;;;;;5075024;28;20074;-73
2021/01/09 10:00:13;;;;;;;6.78;3.00;;;;;;;;;;5074561;28;20027;-73
2021/01/09 10:02:55;;;;;;;10.35;3.47;;;;;;;;;;5075035;28;20016;-73
2021/01/09 10:05:21;;;;;;;8.00;2.50;;;;;;;;;;5075219;28;20027;-73
2021/01/09 10:07:47;;;;;;;11.35;3.00;;;;;;;;;;5073462;28;20040;-73
2021/01/09 10:10:14;;;;;;;10.10;3.05;;;;;;;;;;5075092;28;20024;-75
2021/01/09 10:12:41;;;;;;;8.18;2.38;;;;;;;;;;5074336;28;20384;-74
2021/01/09 10:15:08;;;;;;;6.32;2.63;;;;;;;;;;5073529;28;20016;-76
2021/01/09 10:17:34;;;;;;;9.60;2.47;;;;;;;;;;5075825;28;20050;-77
2021/01/09 10:20:00;;;;;;;7.32;3.63;;;;;;;;;;5072882;28;20021;-74
2021/01/09 10:22:26;;;;;;;23.10;9.98;;;;;;;;;;5073824;28;20038;-75
2021/01/09 10:24:52;;;;;;;11.38;8.07;;;;;;;;;;5067822;28;20027;-75
2021/01/09 10:27:18;;;;;;;9.30;3.20;;;;;;;;;;5060749;28;20029;-76
2021/01/09 10:29:44;;;;;;;12.65;4.15;;;;;;;;;;5072638;28;20032;-76
2021/01/09 10:32:10;;;;;;;5.88;3.05;;;;;;;;;;5072901;28;20042;-76
2021/01/09 10:34:36;;;;;;;13.35;3.90;;;;;;;;;;5074149;28;20465;-79
2021/01/09 10:37:02;;;;;;;11.07;5.28;;;;;;;;;;5068807;28;20032;-79
2021/01/09 10:39:28;;;;;;;6.95;3.10;;;;;;;;;;5061979;28;20013;-78
2021/01/09 10:41:54;;;;;;;8.13;3.85;;;;;;;;;;5063339;28;20116;-78
2021/01/09 10:44:20;;;;;;;6.22;3.00;;;;;;;;;;5061732;28;20021;-78
2021/01/09 10:46:46;;;;;;;10.82;3.00;;;;;;;;;;5065803;28;20469;-78
2021/01/09 10:49:12;;;;;;;4.80;2.80;;;;;;;;;;5053840;28;20028;-78
2021/01/09 10:51:38;;;;;;;6.78;2.67;;;;;;;;;;5053723;28;20294;-78
2021/01/09 10:54:04;;;;;;;8.75;2.83;;;;;;;;;;5053801;28;20104;-78
2021/01/09 10:56:30;;;;;;;5.72;2.30;;;;;;;;;;5052793;28;20111;-78
2021/01/09 10:58:56;;;;;;;6.35;2.70;;;;;;;;;;5054105;28;20071;-78
2021/01/09 11:01:22;;;;;;;7.93;2.00;;;;;;;;;;5053815;28;20449;-78
2021/01/09 11:03:48;;;;;;;8.73;2.53;;;;;;;;;;5052600;28;20419;-78
2021/01/09 11:06:21;;;;;;;7.22;2.50;;;;;;;;;;5052426;28;20068;-78
2021/01/09 11:08:47;;;;;;;5.68;2.28;;;;;;;;;;5070355;28;20472;-77
2021/01/09 11:11:13;;;;;;;7.60;4.43;;;;;;;;;;5067537;28;20016;-77
2021/01/09 11:13:39;;;;;;;8.05;2.65;;;;;;;;;;5053920;28;20017;-77
2021/01/09 11:16:06;;;;;;;7.25;2.50;;;;;;;;;;5057640;28;20028;-77
2021/01/09 11:18:32;;;;;;;9.80;2.60;;;;;;;;;;5060441;28;20021;-77
2021/01/09 11:20:58;;;;;;;4.95;2.10;;;;;;;;;;5053396;28;20025;-78
2021/01/09 11:23:24;;;;;;;5.18;1.80;;;;;;;;;;5070847;28;20021;-77
2021/01/09 11:25:50;;;;;;;5.63;2.15;;;;;;;;;;5072179;28;20352;-77
2021/01/09 11:28:16;;;;;;;4.47;1.80;;;;;;;;;;5051841;28;20048;-77
2021/01/09 11:30:44;;;;;;;5.38;2.20;;;;;;;;;;5052207;28;20052;-78
2021/01/09 11:33:10;;;;;;;6.35;2.13;;;;;;;;;;5051199;28;20025;-74
2021/01/09 11:35:38;;;;;;;7.03;2.03;;;;;;;;;;5052322;28;20104;-75
2021/01/09 11:38:04;;;;;;;6.95;2.63;;;;;;;;;;5053350;28;20352;-75
2021/01/09 11:40:30;;;;;;;8.75;2.72;;;;;;;;;;5053193;28;20075;-74
2021/01/09 11:42:56;;;;;;;6.95;2.55;;;;;;;;;;5051536;28;20128;-74
2021/01/09 11:45:23;;;;;;;7.00;2.60;;;;;;;;;;5053101;28;20029;-74
2021/01/09 11:47:49;;;;;;;9.70;3.00;;;;;;;;;;5051692;28;20025;-74
2021/01/09 11:50:16;;;;;;;12.20;5.53;;;;;;;;;;5052843;28;20025;-75
2021/01/09 11:52:42;;;;;;;18.42;10.80;;;;;;;;;;5052951;28;20025;-75
2021/01/09 11:55:08;;;;;;;9.55;4.65;;;;;;;;;;5052694;28;20100;-75
2021/01/09 11:57:35;;;;;;;13.75;8.30;;;;;;;;;;5051531;28;20028;-75
2021/01/09 12:00:01;;;;;;;7.93;4.18;;;;;;;;;;5052571;28;20017;-76
2021/01/09 12:02:27;;;;;;;8.02;2.92;;;;;;;;;;5051165;28;20074;-75
2021/01/09 12:04:53;;;;;;;7.38;3.15;;;;;;;;;;5052285;28;20369;-75
2021/01/09 12:07:19;;;;;;;7.50;3.10;;;;;;;;;;5052582;28;20048;-76
2021/01/09 12:09:45;;;;;;;7.13;3.17;;;;;;;;;;5052673;28;20032;-75
2021/01/09 12:12:11;;;;;;;9.30;2.25;;;;;;;;;;5051027;28;20017;-76
2021/01/09 12:14:37;;;;;;;7.00;2.45;;;;;;;;;;5052661;28;20021;-77
2021/01/09 12:17:04;;;;;;;8.68;2.55;;;;;;;;;;5052632;28;20143;-75
2021/01/09 12:19:30;;;;;;;6.53;2.15;;;;;;;;;;5052560;28;20048;-78
2021/01/09 12:21:56;;;;;;;4.60;1.98;;;;;;;;;;5052403;28;20028;-77
2021/01/09 12:24:22;;;;;;;15.20;7.15;;;;;;;;;;5051032;28;20023;-77
2021/01/09 12:26:52;;;;;;;8.45;2.47;;;;;;;;;;5052250;28;20104;-77
2021/01/09 12:29:18;;;;;;;4.13;1.60;;;;;;;;;;5051835;28;20063;-78
2021/01/09 12:31:44;;;;;;;6.70;2.47;;;;;;;;;;5052293;28;20259;-77
2021/01/09 12:34:11;;;;;;;7.22;2.20;;;;;;;;;;5051928;28;20017;-78
2021/01/09 12:36:37;;;;;;;5.47;2.03;;;;;;;;;;5050933;28;20074;-78
2021/01/09 12:39:03;;;;;;;7.30;2.05;;;;;;;;;;5050556;28;20013;-79
2021/01/09 12:41:40;;;;;;;5.97;3.38;;;;;;;;;;5051701;28;20052;-78
2021/01/09 12:44:06;;;;;;;15.30;2.63;;;;;;;;;;5054045;28;20452;-78
2021/01/09 12:46:36;;;;;;;8.65;4.40;;;;;;;;;;5060659;28;20043;-78
2021/01/09 12:49:03;;;;;;;9.98;2.63;;;;;;;;;;5059713;28;20020;-79
2021/01/09 12:51:29;;;;;;;14.75;11.95;;;;;;;;;;5060202;28;20021;-78
2021/01/09 12:53:55;;;;;;;7.07;2.25;;;;;;;;;;5064819;28;20024;-79
2021/01/09 12:56:21;;;;;;;4.53;2.20;;;;;;;;;;5070763;28;20024;-79
2021/01/09 12:58:47;;;;;;;6.47;2.28;;;;;;;;;;5070734;28;20037;-77
2021/01/09 13:01:13;;;;;;;7.53;2.30;;;;;;;;;;5071997;28;20021;-78
2021/01/09 13:03:39;;;;;;;8.77;2.50;;;;;;;;;;5072103;28;20027;-78
2021/01/09 13:06:05;;;;;;;8.68;2.38;;;;;;;;;;5070334;28;20028;-76
2021/01/09 13:08:33;;;;;;;7.30;2.60;;;;;;;;;;5070533;28;20473;-77
2021/01/09 13:10:59;;;;;;;13.45;2.90;;;;;;;;;;5070429;28;20058;-76
2021/01/09 13:13:25;;;;;;;20.95;8.30;;;;;;;;;;5071857;28;20021;-78
2021/01/09 13:15:51;;;;;;;21.10;8.38;;;;;;;;;;5061524;28;20392;-76
2021/01/09 13:18:17;;;;;;;7.97;3.40;;;;;;;;;;5058903;28;20538;-77
2021/01/09 13:20:43;;;;;;;16.92;2.55;;;;;;;;;;5060358;28;20029;-77
2021/01/09 13:23:09;;;;;;;9.52;2.05;;;;;;;;;;5065261;28;20024;-76
2021/01/09 13:25:35;;;;;;;8.75;2.58;;;;;;;;;;5070500;28;20025;-77
2021/01/09 13:28:01;;;;;;;5.68;1.80;;;;;;;;;;5053873;28;20048;-76
2021/01/09 13:30:27;;;;;;;10.20;3.80;;;;;;;;;;5050457;28;20055;-76
2021/01/09 13:32:53;;;;;;;9.90;3.33;;;;;;;;;;5050569;28;20017;-76
2021/01/09 13:35:20;;;;;;;12.63;4.65;;;;;;;;;;5051701;28;20013;-75
2021/01/09 13:37:46;;;;;;;28.02;12.90;;;;;;;;;;5050654;28;20360;-77
2021/01/09 13:40:12;;;;;;;10.52;3.55;;;;;;;;;;5051857;28;20013;-76
2021/01/09 13:42:38;;;;;;;17.63;8.43;;;;;;;;;;5050431;28;20052;-76
2021/01/09 13:45:04;;;;;;;10.10;4.88;;;;;;;;;;5058063;28;20013;-77
2021/01/09 13:47:33;;;;;;;8.50;3.50;;;;;;;;;;5067434;28;20523;-77
2021/01/09 13:49:59;;;;;;;9.25;3.85;;;;;;;;;;5067900;28;20036;-77
2021/01/09 13:52:25;;;;;;;8.48;2.58;;;;;;;;;;5051525;28;20055;-77
2021/01/09 13:54:51;;;;;;;5.15;2.45;;;;;;;;;;5050101;28;20113;-77
2021/01/09 13:57:17;;;;;;;10.98;3.58;;;;;;;;;;5053597;28;20052;-76
2021/01/09 13:59:43;;;;;;;6.55;2.58;;;;;;;;;;5054147;28;20478;-77
2021/01/09 14:02:09;;;;;;;6.15;1.90;;;;;;;;;;5053779;28;20024;-77
2021/01/09 14:04:36;;;;;;;11.40;3.13;;;;;;;;;;5053839;28;20017;-77
2021/01/09 14:07:02;;;;;;;6.30;2.25;;;;;;;;;;5053186;28;20116;-78
2021/01/09 14:09:28;;;;;;;9.00;2.30;;;;;;;;;;5053863;28;20025;-79
2021/01/09 14:11:54;;;;;;;7.40;2.00;;;;;;;;;;5053868;28;20116;-75
2021/01/09 14:14:20;;;;;;;6.90;2.50;;;;;;;;;;5053989;28;20086;-77
2021/01/09 14:16:46;;;;;;;7.80;1.85;;;;;;;;;;5055110;28;20412;-77
2021/01/09 14:19:12;;;;;;;12.68;2.40;;;;;;;;;;5053758;28;20028;-78
2021/01/09 14:21:38;;;;;;;7.28;1.98;;;;;;;;;;5053906;28;20025;-80
2021/01/09 14:24:05;;;;;;;6.90;1.80;;;;;;;;;;5055451;28;20021;-82
2021/01/09 14:26:32;;;;;;;3.90;1.67;;;;;;;;;;5060694;28;20031;-78
2021/01/09 14:28:58;;;;;;;8.80;2.67;;;;;;;;;;5074695;28;20021;-80
2021/01/09 14:31:24;;;;;;;12.80;2.72;;;;;;;;;;5076204;28;20043;-81
2021/01/09 14:33:50;;;;;;;10.57;2.28;;;;;;;;;;5070275;28;20023;-79